Messwerte Tin City

Temperatur

Temperatur
°C
1623477600 22.00 22.00 5
1623481200 23.00 23.00 6
1623484800 0.00 0.00 5
1623488400 1.00 1.00 5
1623492000 2.00 2.00 5
1623495600 3.00 3.00 4
1623499200 4.00 4.00 3
1623502800 5.00 5.00 3
1623506400 6.00 6.00 4
1623510000 7.00 7.00
1623513600 8.00 8.00 4
1623517200 9.00 9.00 5
1623520800 10.00 10.00 6
1623524400 11.00 11.00
1623528000 12.00 12.00 5
1623531600 13.00 13.00 5
1623535200 14.00 14.00 6
1623538800 15.00 15.00 6
1623542400 16.00 16.00 6
1623546000 17.00 17.00
1623549600 18.00 18.00 6
1623553200 19.00 19.00 5
1623556800 20.00 20.00 5
1623560400 21.00 21.00 4

Aktuellste Messwerte

Wettercharakter
Wetter: wolkig, aber kaum Regen
Temperatur
4 °C
Feuchtigkeit
97 %
Wind
15 km/hWindrichtung: Nordost
Luftdruck
1012 hPa
Messzeit: 12. Juni 2021, 21.00Datenquelle: METAR

Weitere Messstationen in der Nähe

Messstation Temperatur Entfernung
Shishmaref 2 °C 112 km
Nome 9 °C 167 km
Savoonga Airport 4 °C 242 km
Golovin - 256 km
Kotzebue 10 °C 282 km
Kivalina 5 °C 282 km
Noatak 13 °C 311 km

Wind

Windrichtung Böen Mittelwind
° km/h km/h
1623477600 22.00 21.00 - 22.00 100° 15
1623481200 23.00 22.00 - 23.00 40° 15
1623484800 0.00 23.00 - 0.00 40° 15
1623488400 1.00 0.00 - 1.00 30° 15
1623492000 2.00 1.00 - 2.00 30° 20
1623495600 3.00 2.00 - 3.00 30° 20
1623499200 4.00 3.00 - 4.00 40° 20
1623502800 5.00 4.00 - 5.00 40° 10
1623506400 6.00 5.00 - 6.00 50° 5
1623510000 7.00 6.00 - 7.00
1623513600 8.00 7.00 - 8.00 90° 5
1623517200 9.00 8.00 - 9.00 90° 0
1623520800 10.00 9.00 - 10.00 0
1623524400 11.00 10.00 - 11.00
1623528000 12.00 11.00 - 12.00 40° 10
1623531600 13.00 12.00 - 13.00 40° 15
1623535200 14.00 13.00 - 14.00 40° 15
1623538800 15.00 14.00 - 15.00 30° 15
1623542400 16.00 15.00 - 16.00 40° 15
1623546000 17.00 16.00 - 17.00
1623549600 18.00 17.00 - 18.00 40° 15
1623553200 19.00 18.00 - 19.00 40° 15
1623556800 20.00 19.00 - 20.00 40° 15
1623560400 21.00 20.00 - 21.00 40° 15

Ihre Wetterstation

Fehlt Ihre Wetterstation auf unserem Portal?

Schreiben Sie an network@meteonews.ch

Klima

Wann ist es am wärmsten? Wann regnet es am wenigsten? Unsere Klimadaten geben Auskunft.